createdAt,value
2018-07-22T00:00:56.667Z,30.50
2018-07-22T00:03:24.838Z,31.60
2018-07-22T00:05:53.022Z,33.80
2018-07-22T00:08:21.233Z,29.10
2018-07-22T00:10:49.426Z,31.10
2018-07-22T00:13:17.671Z,31.97
2018-07-22T00:15:45.824Z,29.77
2018-07-22T00:18:14.094Z,30.20
2018-07-22T00:20:42.686Z,30.97
2018-07-22T00:23:10.874Z,30.10
2018-07-22T00:25:39.110Z,30.37
2018-07-22T00:28:07.323Z,28.57
2018-07-22T00:30:35.530Z,30.43
2018-07-22T00:33:03.764Z,30.20
2018-07-22T00:35:31.943Z,29.93
2018-07-22T00:38:00.147Z,26.77
2018-07-22T00:40:28.370Z,29.13
2018-07-22T00:42:56.588Z,27.50
2018-07-22T00:45:24.781Z,27.47
2018-07-22T00:47:53.011Z,26.50
2018-07-22T00:50:21.224Z,26.40
2018-07-22T00:52:49.414Z,25.33
2018-07-22T00:55:17.722Z,26.20
2018-07-22T00:57:45.935Z,23.97
2018-07-22T01:00:14.154Z,24.07
2018-07-22T01:02:42.324Z,25.00
2018-07-22T01:05:10.512Z,24.20
2018-07-22T01:07:38.732Z,23.67
2018-07-22T01:10:07.168Z,22.03
2018-07-22T01:12:35.379Z,23.57
2018-07-22T01:15:03.687Z,21.77
2018-07-22T01:17:31.909Z,22.80
2018-07-22T01:20:00.114Z,22.90
2018-07-22T01:22:28.291Z,21.40
2018-07-22T01:24:56.531Z,20.90
2018-07-22T01:27:24.722Z,23.23
2018-07-22T01:29:53.294Z,22.70
2018-07-22T01:32:21.502Z,23.33
2018-07-22T01:34:49.694Z,21.93
2018-07-22T01:37:17.949Z,22.10
2018-07-22T01:39:46.158Z,23.97
2018-07-22T01:42:14.370Z,20.67
2018-07-22T01:44:42.618Z,23.30
2018-07-22T01:47:10.894Z,23.73
2018-07-22T01:49:39.134Z,23.00
2018-07-22T01:52:07.358Z,23.23
2018-07-22T01:54:35.593Z,23.40
2018-07-22T01:57:03.782Z,22.30
2018-07-22T01:59:31.947Z,22.20
2018-07-22T02:02:00.194Z,21.47
2018-07-22T02:04:28.381Z,22.57
2018-07-22T02:06:56.599Z,22.00
2018-07-22T02:09:24.767Z,22.90
2018-07-22T02:11:53.016Z,22.37
2018-07-22T02:14:21.334Z,22.17
2018-07-22T02:16:49.549Z,22.67
2018-07-22T02:19:17.742Z,24.20
2018-07-22T02:21:45.949Z,25.37
2018-07-22T02:24:14.162Z,24.93
2018-07-22T02:26:42.382Z,22.23
2018-07-22T02:29:10.598Z,21.97
2018-07-22T02:31:38.835Z,22.70
2018-07-22T02:34:07.014Z,19.50
2018-07-22T02:36:35.215Z,22.43
2018-07-22T02:39:03.701Z,20.47
2018-07-22T02:41:31.943Z,22.60
2018-07-22T02:44:00.233Z,23.37
2018-07-22T02:46:28.430Z,22.07
2018-07-22T02:48:56.634Z,22.10
2018-07-22T02:51:24.820Z,22.50
2018-07-22T02:53:53.044Z,22.63
2018-07-22T02:56:21.230Z,24.13
2018-07-22T02:58:49.442Z,24.20
2018-07-22T03:01:17.659Z,24.60
2018-07-22T03:03:45.878Z,23.40
2018-07-22T03:06:14.069Z,24.27
2018-07-22T03:08:42.317Z,24.30
2018-07-22T03:11:10.487Z,24.90
2018-07-22T03:13:38.706Z,24.30
2018-07-22T03:16:07.239Z,23.73
2018-07-22T03:18:35.455Z,25.03
2018-07-22T03:21:03.635Z,23.77
2018-07-22T03:23:31.799Z,24.43
2018-07-22T03:26:00.031Z,24.57
2018-07-22T03:28:28.199Z,24.57
2018-07-22T03:30:56.394Z,24.27
2018-07-22T03:33:24.614Z,23.93
2018-07-22T03:35:52.846Z,23.50
2018-07-22T03:38:20.994Z,24.93
2018-07-22T03:40:49.218Z,25.80
2018-07-22T03:43:17.438Z,24.67
2018-07-22T03:45:45.630Z,23.60
2018-07-22T03:48:13.818Z,25.80
2018-07-22T03:50:42.039Z,24.83
2018-07-22T03:53:10.262Z,26.67
2018-07-22T03:55:38.462Z,25.23
2018-07-22T03:58:06.658Z,26.80
2018-07-22T04:00:34.869Z,25.17
2018-07-22T04:03:03.066Z,25.70
2018-07-22T04:05:31.330Z,26.07
2018-07-22T04:07:59.551Z,26.27
2018-07-22T04:10:27.760Z,25.27
2018-07-22T04:12:55.971Z,26.17
2018-07-22T04:15:24.334Z,25.80
2018-07-22T04:17:52.553Z,25.50
2018-07-22T04:20:20.783Z,28.13
2018-07-22T04:22:48.978Z,26.53
2018-07-22T04:25:17.186Z,27.17
2018-07-22T04:27:45.395Z,27.97
2018-07-22T04:30:13.635Z,28.33
2018-07-22T04:32:41.849Z,25.57
2018-07-22T04:35:10.038Z,28.77
2018-07-22T04:37:38.270Z,25.60
2018-07-22T04:40:06.454Z,27.03
2018-07-22T04:42:34.667Z,23.43
2018-07-22T04:45:02.883Z,25.37
2018-07-22T04:47:31.114Z,27.37
2018-07-22T04:49:59.328Z,24.87
2018-07-22T04:52:27.533Z,27.23
2018-07-22T04:54:55.786Z,25.00
2018-07-22T04:57:23.965Z,23.70
2018-07-22T04:59:52.166Z,26.17
2018-07-22T05:02:20.402Z,24.60
2018-07-22T05:04:48.623Z,25.50
2018-07-22T05:07:16.890Z,25.03
2018-07-22T05:09:45.074Z,26.97
2018-07-22T05:12:13.249Z,23.17
2018-07-22T05:14:41.444Z,25.73
2018-07-22T05:17:09.667Z,24.53
2018-07-22T05:19:37.861Z,24.13
2018-07-22T05:22:06.194Z,24.60
2018-07-22T05:24:34.383Z,24.87
2018-07-22T05:27:02.554Z,26.90
2018-07-22T05:29:30.726Z,26.10
2018-07-22T05:31:58.903Z,26.50
2018-07-22T05:34:27.069Z,27.70
2018-07-22T05:36:55.222Z,23.73
2018-07-22T05:39:23.394Z,25.33
2018-07-22T05:41:51.550Z,26.50
2018-07-22T05:44:19.934Z,26.00
2018-07-22T05:46:48.107Z,26.33
2018-07-22T05:49:16.271Z,26.27
2018-07-22T05:51:44.442Z,27.77
2018-07-22T05:54:12.603Z,26.50
2018-07-22T05:56:40.782Z,34.40
2018-07-22T05:59:08.946Z,28.90
2018-07-22T06:01:37.107Z,27.77
2018-07-22T06:04:05.386Z,28.50
2018-07-22T06:06:33.562Z,27.60
2018-07-22T06:09:01.731Z,27.93
2018-07-22T06:11:29.898Z,27.90
2018-07-22T06:13:58.074Z,26.70
2018-07-22T06:16:26.221Z,28.60
2018-07-22T06:18:54.387Z,28.10
2018-07-22T06:21:22.558Z,27.23
2018-07-22T06:23:50.731Z,27.43
2018-07-22T06:26:18.891Z,29.17
2018-07-22T06:28:47.077Z,28.07
2018-07-22T06:31:15.269Z,29.17
2018-07-22T06:33:43.441Z,32.00
2018-07-22T06:36:11.615Z,28.83
2018-07-22T06:38:39.786Z,28.67
2018-07-22T06:41:08.024Z,30.70
2018-07-22T06:43:36.131Z,30.17
2018-07-22T06:46:04.338Z,29.40
2018-07-22T06:48:32.474Z,30.67
2018-07-22T06:51:00.656Z,28.70
2018-07-22T06:53:28.837Z,27.87
2018-07-22T06:55:57.034Z,28.80
2018-07-22T06:58:25.206Z,28.57
2018-07-22T07:00:53.419Z,29.43
2018-07-22T07:03:21.539Z,29.90
2018-07-22T07:05:49.707Z,28.73
2018-07-22T07:08:17.874Z,30.97
2018-07-22T07:10:46.071Z,29.20
2018-07-22T07:13:14.250Z,28.30
2018-07-22T07:15:42.403Z,30.00
2018-07-22T07:18:10.619Z,28.20
2018-07-22T07:20:38.802Z,29.60
2018-07-22T07:23:06.964Z,29.40
2018-07-22T07:25:35.139Z,29.20
2018-07-22T07:28:03.314Z,30.17
2018-07-22T07:30:31.627Z,26.90
2018-07-22T07:32:59.998Z,29.93
2018-07-22T07:35:28.482Z,29.57
2018-07-22T07:37:56.666Z,27.50
2018-07-22T07:40:24.849Z,27.57
2018-07-22T07:42:53.006Z,29.70
2018-07-22T07:45:21.165Z,24.77
2018-07-22T07:47:49.313Z,27.87
2018-07-22T07:50:17.502Z,27.40
2018-07-22T07:52:45.668Z,27.30
2018-07-22T07:55:13.843Z,26.50
2018-07-22T07:57:42.008Z,27.60
2018-07-22T08:00:10.191Z,27.37
2018-07-22T08:02:38.367Z,24.63
2018-07-22T08:05:06.819Z,25.87
2018-07-22T08:07:34.998Z,25.77
2018-07-22T08:10:03.507Z,25.90
2018-07-22T08:12:31.771Z,28.53
2018-07-22T08:14:59.942Z,28.47
2018-07-22T08:17:28.164Z,27.70
2018-07-22T08:19:56.571Z,28.00
2018-07-22T08:22:25.031Z,27.20
2018-07-22T08:24:53.322Z,25.83
2018-07-22T08:27:21.519Z,26.17
2018-07-22T08:29:49.734Z,28.50
2018-07-22T08:32:17.938Z,26.33
2018-07-22T08:34:46.110Z,24.87
2018-07-22T08:37:14.280Z,26.30
2018-07-22T08:39:42.453Z,26.07
2018-07-22T08:42:10.654Z,25.87
2018-07-22T08:44:38.830Z,23.77
2018-07-22T08:47:07.018Z,22.33
2018-07-22T08:49:35.232Z,22.73
2018-07-22T08:52:03.500Z,23.10
2018-07-22T08:54:31.678Z,22.30
2018-07-22T08:56:59.918Z,23.27
2018-07-22T08:59:28.172Z,22.50
2018-07-22T09:01:56.368Z,23.83
2018-07-22T09:04:24.790Z,22.90
2018-07-22T09:06:52.991Z,24.10
2018-07-22T09:09:21.206Z,22.97
2018-07-22T09:11:49.473Z,22.43
2018-07-22T09:14:17.632Z,23.23
2018-07-22T09:16:45.826Z,20.57
2018-07-22T09:19:14.016Z,21.37
2018-07-22T09:21:42.234Z,21.87
2018-07-22T09:24:10.903Z,20.70
2018-07-22T09:26:39.113Z,21.10
2018-07-22T09:29:07.376Z,21.70
2018-07-22T09:31:35.604Z,21.03
2018-07-22T09:34:03.877Z,21.00
2018-07-22T09:36:32.145Z,21.80
2018-07-22T09:39:00.407Z,20.63
2018-07-22T09:41:28.678Z,20.60
2018-07-22T09:43:56.887Z,23.00
2018-07-22T09:46:25.188Z,21.50
2018-07-22T09:48:53.472Z,19.60
2018-07-22T09:51:21.646Z,18.13
2018-07-22T09:53:49.947Z,20.30
2018-07-22T09:56:18.072Z,18.23
2018-07-22T09:58:46.331Z,17.90
2018-07-22T10:01:14.550Z,19.60
2018-07-22T10:03:42.726Z,18.30
2018-07-22T10:06:10.931Z,17.27
2018-07-22T10:08:39.106Z,17.10
2018-07-22T10:11:07.311Z,17.40
2018-07-22T10:13:35.474Z,17.30
2018-07-22T10:16:03.666Z,17.93
2018-07-22T10:18:31.928Z,17.77
2018-07-22T10:21:00.304Z,18.40
2018-07-22T10:23:28.943Z,16.83
2018-07-22T10:25:57.112Z,17.80
2018-07-22T10:28:25.416Z,17.40
2018-07-22T10:30:53.682Z,15.60
2018-07-22T10:33:22.192Z,17.47
2018-07-22T10:35:50.686Z,16.70
2018-07-22T10:38:19.003Z,16.27
2018-07-22T10:40:47.296Z,17.60
2018-07-22T10:43:15.517Z,17.07
2018-07-22T10:45:43.922Z,18.17
2018-07-22T10:48:12.135Z,15.87
2018-07-22T10:50:40.429Z,16.00
2018-07-22T10:53:08.696Z,18.67
2018-07-22T10:55:36.937Z,18.33
2018-07-22T10:58:05.202Z,17.47
2018-07-22T11:00:35.918Z,16.40
2018-07-22T11:03:05.562Z,15.57
2018-07-22T11:05:33.742Z,15.20
2018-07-22T11:08:01.962Z,16.73
2018-07-22T11:10:30.794Z,15.20
2018-07-22T11:12:58.970Z,13.90
2018-07-22T11:15:27.181Z,16.10
2018-07-22T11:17:55.338Z,15.60
2018-07-22T11:20:23.581Z,17.20
2018-07-22T11:22:51.745Z,15.90
2018-07-22T11:25:20.014Z,16.33
2018-07-22T11:27:48.265Z,16.10
2018-07-22T11:30:16.450Z,16.50
2018-07-22T11:32:44.606Z,15.03
2018-07-22T11:35:12.780Z,21.80
2018-07-22T11:37:40.946Z,15.07
2018-07-22T11:40:09.114Z,16.63
2018-07-22T11:42:37.326Z,15.40
2018-07-22T11:45:05.521Z,15.23
2018-07-22T11:47:33.686Z,15.20
2018-07-22T11:50:01.846Z,15.90
2018-07-22T11:52:30.006Z,15.23
2018-07-22T11:54:58.158Z,15.60
2018-07-22T11:57:26.328Z,17.17
2018-07-22T11:59:54.482Z,14.70
2018-07-22T12:02:22.658Z,16.07
2018-07-22T12:04:50.833Z,15.30
2018-07-22T12:07:19.020Z,14.40
2018-07-22T12:09:47.203Z,14.83
2018-07-22T12:12:15.388Z,15.23
2018-07-22T12:14:43.529Z,16.40
2018-07-22T12:17:11.758Z,15.97
2018-07-22T12:19:39.910Z,18.03
2018-07-22T12:22:09.036Z,16.07
2018-07-22T12:24:37.562Z,15.43
2018-07-22T12:27:05.952Z,17.30
2018-07-22T12:29:34.237Z,16.20
2018-07-22T12:32:02.508Z,17.60
2018-07-22T12:34:30.786Z,16.70
2018-07-22T12:36:59.190Z,16.33
2018-07-22T12:39:27.500Z,16.00
2018-07-22T12:41:55.850Z,16.60
2018-07-22T12:44:24.337Z,16.30
2018-07-22T12:46:52.618Z,15.47
2018-07-22T12:49:20.853Z,17.10
2018-07-22T12:51:49.150Z,15.33
2018-07-22T12:54:17.317Z,17.10
2018-07-22T12:56:45.517Z,16.13
2018-07-22T12:59:14.786Z,15.67
2018-07-22T13:01:42.951Z,17.53
2018-07-22T13:04:11.142Z,16.43
2018-07-22T13:06:39.490Z,15.90
2018-07-22T13:09:09.319Z,17.03
2018-07-22T13:11:38.028Z,16.40
2018-07-22T13:14:07.006Z,16.33
2018-07-22T13:16:35.729Z,15.20
2018-07-22T13:19:04.184Z,16.97
2018-07-22T13:21:32.900Z,15.27
2018-07-22T13:24:01.368Z,15.23
2018-07-22T13:26:29.862Z,15.00
2018-07-22T13:28:58.201Z,17.20
2018-07-22T13:31:26.494Z,14.90
2018-07-22T13:33:54.962Z,15.57
2018-07-22T13:36:23.824Z,14.70
2018-07-22T13:38:52.150Z,15.63
2018-07-22T13:41:20.480Z,15.33
2018-07-22T13:43:48.686Z,16.10
2018-07-22T13:46:18.285Z,16.27
2018-07-22T13:48:46.617Z,15.43
2018-07-22T13:51:14.869Z,16.23
2018-07-22T13:53:43.214Z,15.20
2018-07-22T13:56:11.545Z,15.90
2018-07-22T13:58:39.822Z,15.80
2018-07-22T14:01:08.079Z,16.00
2018-07-22T14:03:36.580Z,15.67
2018-07-22T14:06:04.786Z,16.37
2018-07-22T14:08:33.094Z,15.80
2018-07-22T14:11:01.638Z,15.23
2018-07-22T14:13:29.980Z,14.60
2018-07-22T14:15:58.596Z,14.90
2018-07-22T14:18:27.097Z,15.67
2018-07-22T14:20:55.371Z,15.00
2018-07-22T14:23:23.689Z,15.30
2018-07-22T14:25:51.943Z,16.07
2018-07-22T14:28:20.319Z,16.07
2018-07-22T14:30:48.649Z,14.87
2018-07-22T14:33:17.278Z,14.73
2018-07-22T14:35:45.644Z,16.47
2018-07-22T14:38:13.900Z,14.80
2018-07-22T14:40:42.254Z,15.90
2018-07-22T14:43:10.656Z,14.60
2018-07-22T14:45:39.275Z,14.53
2018-07-22T14:48:07.792Z,15.23
2018-07-22T14:50:36.120Z,15.80
2018-07-22T14:53:04.913Z,14.60
2018-07-22T14:55:33.331Z,14.53
2018-07-22T14:58:01.638Z,14.67
2018-07-22T15:00:29.975Z,14.37
2018-07-22T15:02:58.213Z,15.10
2018-07-22T15:05:26.438Z,14.60
2018-07-22T15:07:54.814Z,14.57
2018-07-22T15:10:22.970Z,14.40
2018-07-22T15:12:51.277Z,15.53
2018-07-22T15:15:19.595Z,14.67
2018-07-22T15:17:47.998Z,14.37
2018-07-22T15:20:16.335Z,14.93
2018-07-22T15:22:45.369Z,14.90
2018-07-22T15:25:13.778Z,15.23
2018-07-22T15:27:42.187Z,14.30
2018-07-22T15:30:10.532Z,14.30
2018-07-22T15:32:39.017Z,14.07
2018-07-22T15:35:07.188Z,15.50
2018-07-22T15:37:36.366Z,16.20
2018-07-22T15:40:05.298Z,14.13
2018-07-22T15:42:33.633Z,15.10
2018-07-22T15:45:02.026Z,16.87
2018-07-22T15:47:30.662Z,15.20
2018-07-22T15:49:59.054Z,13.90
2018-07-22T15:52:27.377Z,15.23
2018-07-22T15:54:55.552Z,14.13
2018-07-22T15:57:23.734Z,15.33
2018-07-22T15:59:53.059Z,14.27
2018-07-22T16:02:21.286Z,15.93
2018-07-22T16:04:49.787Z,15.17
2018-07-22T16:07:18.053Z,13.70
2018-07-22T16:09:46.275Z,15.23
2018-07-22T16:12:14.483Z,13.93
2018-07-22T16:14:42.666Z,14.47
2018-07-22T16:17:10.954Z,14.77
2018-07-22T16:19:39.302Z,16.27
2018-07-22T16:22:07.726Z,16.13
2018-07-22T16:24:35.991Z,15.13
2018-07-22T16:27:04.424Z,14.63
2018-07-22T16:29:32.899Z,16.10
2018-07-22T16:32:01.629Z,15.53
2018-07-22T16:34:30.300Z,15.63
2018-07-22T16:36:58.554Z,16.80
2018-07-22T16:39:27.187Z,14.77
2018-07-22T16:41:55.706Z,15.60
2018-07-22T16:44:23.927Z,16.20
2018-07-22T16:46:52.230Z,15.20
2018-07-22T16:49:20.449Z,16.30
2018-07-22T16:51:48.858Z,16.63
2018-07-22T16:54:17.117Z,16.73
2018-07-22T16:56:45.334Z,15.60
2018-07-22T16:59:13.578Z,15.77
2018-07-22T17:01:41.861Z,17.07
2018-07-22T17:04:10.181Z,16.97
2018-07-22T17:06:38.402Z,17.20
2018-07-22T17:09:08.453Z,17.63
2018-07-22T17:11:36.746Z,16.33
2018-07-22T17:14:05.033Z,18.17
2018-07-22T17:16:34.342Z,16.03
2018-07-22T17:19:02.591Z,16.67
2018-07-22T17:21:30.849Z,16.70
2018-07-22T17:23:59.105Z,16.87
2018-07-22T17:26:27.319Z,16.50
2018-07-22T17:28:55.586Z,16.10
2018-07-22T17:31:23.764Z,17.00
2018-07-22T17:33:52.031Z,14.47
2018-07-22T17:36:20.286Z,15.57
2018-07-22T17:38:48.529Z,16.30
2018-07-22T17:41:16.790Z,17.57
2018-07-22T17:43:45.021Z,17.27
2018-07-22T17:46:13.226Z,16.40
2018-07-22T17:48:41.457Z,16.93
2018-07-22T17:51:09.738Z,17.00
2018-07-22T17:53:38.290Z,16.63
2018-07-22T17:56:06.781Z,18.50
2018-07-22T17:58:36.290Z,17.57
2018-07-22T18:01:04.758Z,19.97
2018-07-22T18:03:33.686Z,17.90
2018-07-22T18:06:02.570Z,20.10
2018-07-22T18:08:31.225Z,19.07
2018-07-22T18:10:59.505Z,16.33
2018-07-22T18:13:27.754Z,20.47
2018-07-22T18:15:56.050Z,24.00
2018-07-22T18:18:24.254Z,19.50
2018-07-22T18:20:52.417Z,17.37
2018-07-22T18:23:20.654Z,17.90
2018-07-22T18:25:49.002Z,16.50
2018-07-22T18:28:17.270Z,17.23
2018-07-22T18:30:45.782Z,18.57
2018-07-22T18:33:14.077Z,16.67
2018-07-22T18:35:42.310Z,15.80
2018-07-22T18:38:10.578Z,18.37
2018-07-22T18:40:38.741Z,16.90
2018-07-22T18:43:07.105Z,17.83
2018-07-22T18:45:35.367Z,16.90
2018-07-22T18:48:03.553Z,18.30
2018-07-22T18:50:31.710Z,18.50
2018-07-22T18:52:59.901Z,27.07
2018-07-22T18:55:28.154Z,22.10
2018-07-22T18:57:56.628Z,19.17
2018-07-22T19:00:24.781Z,17.57
2018-07-22T19:02:53.195Z,17.87
2018-07-22T19:05:21.370Z,17.70
2018-07-22T19:07:50.531Z,19.27
2018-07-22T19:10:19.265Z,17.83
2018-07-22T19:12:47.690Z,20.53
2018-07-22T19:15:15.965Z,18.83
2018-07-22T19:17:44.361Z,17.83
2018-07-22T19:20:12.781Z,19.20
2018-07-22T19:22:41.302Z,16.40
2018-07-22T19:25:09.705Z,17.40
2018-07-22T19:27:38.163Z,17.50
2018-07-22T19:30:06.621Z,21.00
2018-07-22T19:32:34.951Z,19.80
2018-07-22T19:35:03.250Z,18.83
2018-07-22T19:37:31.654Z,18.40
2018-07-22T19:40:00.004Z,17.33
2018-07-22T19:42:28.486Z,17.27
2018-07-22T19:44:56.755Z,16.90
2018-07-22T19:47:24.978Z,17.30
2018-07-22T19:49:53.158Z,18.30
2018-07-22T19:52:21.601Z,17.10
2018-07-22T19:54:49.910Z,16.97
2018-07-22T19:57:18.444Z,16.20
2018-07-22T19:59:46.614Z,18.37
2018-07-22T20:02:14.898Z,16.60
2018-07-22T20:04:43.295Z,17.07
2018-07-22T20:07:11.995Z,18.27
2018-07-22T20:09:40.970Z,17.63
2018-07-22T20:12:09.388Z,17.57
2018-07-22T20:14:37.706Z,18.50
2018-07-22T20:17:06.451Z,17.50
2018-07-22T20:19:35.307Z,18.53
2018-07-22T20:22:03.496Z,17.33
2018-07-22T20:24:31.662Z,18.70
2018-07-22T20:26:59.838Z,18.20
2018-07-22T20:29:28.015Z,18.70
2018-07-22T20:31:56.190Z,22.80
2018-07-22T20:34:24.430Z,24.70
2018-07-22T20:36:52.591Z,19.63
2018-07-22T20:39:20.762Z,20.00
2018-07-22T20:41:48.951Z,19.70
2018-07-22T20:44:17.109Z,19.83
2018-07-22T20:46:45.274Z,19.47
2018-07-22T20:49:13.430Z,18.20
2018-07-22T20:51:41.634Z,17.87
2018-07-22T20:54:09.794Z,19.57
2018-07-22T20:56:37.970Z,19.17
2018-07-22T20:59:06.278Z,20.73
2018-07-22T21:01:34.438Z,19.87
2018-07-22T21:04:02.614Z,18.30
2018-07-22T21:06:31.062Z,19.80
2018-07-22T21:08:59.202Z,19.07
2018-07-22T21:11:37.130Z,19.10
2018-07-22T21:14:05.494Z,19.27
2018-07-22T21:16:33.654Z,19.87
2018-07-22T21:19:01.838Z,19.60
2018-07-22T21:21:30.002Z,19.37
2018-07-22T21:23:58.178Z,19.10
2018-07-22T21:26:26.343Z,20.37
2018-07-22T21:28:54.541Z,20.50
2018-07-22T21:31:22.703Z,19.50
2018-07-22T21:33:50.922Z,19.70
2018-07-22T21:36:19.029Z,18.53
2018-07-22T21:38:47.194Z,18.90
2018-07-22T21:41:15.372Z,18.27
2018-07-22T21:43:43.551Z,17.27
2018-07-22T21:46:11.718Z,17.83
2018-07-22T21:48:39.872Z,18.53
2018-07-22T21:51:08.051Z,18.67
2018-07-22T21:53:36.207Z,17.77
2018-07-22T21:56:04.379Z,17.77
2018-07-22T21:58:32.542Z,17.63
2018-07-22T22:01:01.527Z,17.30
2018-07-22T22:03:29.704Z,17.03
2018-07-22T22:05:57.874Z,15.63
2018-07-22T22:08:26.042Z,14.67
2018-07-22T22:10:54.210Z,15.70
2018-07-22T22:13:22.386Z,14.50
2018-07-22T22:15:50.570Z,14.33
2018-07-22T22:18:18.743Z,14.00
2018-07-22T22:20:46.930Z,15.73
2018-07-22T22:23:15.103Z,14.30
2018-07-22T22:25:43.261Z,13.17
2018-07-22T22:28:11.446Z,13.97
2018-07-22T22:30:39.596Z,15.17
2018-07-22T22:33:07.762Z,13.67
2018-07-22T22:35:35.931Z,13.40
2018-07-22T22:38:04.098Z,14.17
2018-07-22T22:40:32.275Z,13.93
2018-07-22T22:43:00.450Z,14.10
2018-07-22T22:45:28.602Z,13.70
2018-07-22T22:47:56.833Z,13.67
2018-07-22T22:50:25.010Z,13.33
2018-07-22T22:52:53.206Z,14.23
2018-07-22T22:55:21.377Z,14.43
2018-07-22T22:58:00.841Z,14.73
2018-07-22T23:00:28.997Z,15.70
2018-07-22T23:02:57.151Z,13.90
2018-07-22T23:05:25.318Z,14.30
2018-07-22T23:07:53.478Z,14.27
2018-07-22T23:10:21.641Z,15.17
2018-07-22T23:12:49.797Z,13.97
2018-07-22T23:15:17.962Z,14.17
2018-07-22T23:17:46.121Z,14.40
2018-07-22T23:20:14.287Z,13.53
2018-07-22T23:22:42.438Z,15.40
2018-07-22T23:25:10.617Z,13.00
2018-07-22T23:27:38.883Z,14.10
2018-07-22T23:30:07.058Z,14.77
2018-07-22T23:32:35.222Z,13.27
2018-07-22T23:35:03.371Z,14.43
2018-07-22T23:37:31.530Z,14.20
2018-07-22T23:39:59.686Z,13.40
2018-07-22T23:42:27.841Z,12.80
2018-07-22T23:44:55.991Z,13.90
2018-07-22T23:47:24.218Z,13.47
2018-07-22T23:49:52.366Z,14.80
2018-07-22T23:52:20.525Z,14.40
2018-07-22T23:54:48.674Z,14.13
2018-07-22T23:57:16.839Z,13.43
2018-07-22T23:59:44.994Z,13.23
